La Palma > ESTACION METEOROLÓGICA Tenagua - Puntallana

DATOS ACTUALES Online

Ultima actulizacion 1 minutos

17.3 ºC

Temperatura

88

Humedad (%)

980

Presión (mb)

2

Precipitación (mm)

1.1 SSE

Viento (Km/h)

DATOS DIARIOS

Temperatura últimas 24 horas (ºC)

Humedad últimas 24 horas (%)

Presión atmosférica últimas 24 horas (mb)

Precipitaciones últimas 23 horas (mm)

Viento últimas 24 horas (Km/h)

Hora Temperatura (°C) ºC Precipitación (mm) mm Presión (mb) mb Humedad (%) % Viento (Km/h) km/h
28 - 10:00 19.8 0.3 979 72 13.7 ENE
28 - 11:00 20.3 0.3 980 67 18 E
28 - 12:00 21.4 0.3 980 57 13.4 ENE
28 - 13:00 21.4 0.3 979 68 10.5 ESE
28 - 14:00 20.2 0.3 979 72 14.3 ESE
28 - 15:00 20.1 0.3 979 75 6.1 NE
28 - 16:00 19.6 0.3 979 77 17.7 ENE
28 - 17:00 19.4 0.3 979 77 13 SE
28 - 18:00 19.4 0.3 979 79 9.3 NNE
28 - 19:00 18.9 0.3 979 81 6.1 E
28 - 20:00 18.6 0.3 979 83 3.5 E
28 - 21:00 17.8 1 980 89 1.1 SSE
28 - 22:00 17.9 1.3 980 91 3.5 ENE
28 - 23:00 17.9 1.3 980 90 7.6 NNE
29 - 00:00 18 0 980 87 7.9 NNE
29 - 01:00 17.7 0 979 87 4.3 W
29 - 02:00 17.1 0.5 979 91 14.8 WSW
29 - 03:00 17 1 978 92 2.1 WSW
29 - 04:00 16.7 1.5 978 92 4.7 ESE
29 - 05:00 16.5 1.8 978 90 3.5 SSE
29 - 06:00 16.9 1.8 979 86 1.1 SW
29 - 07:00 17.5 1.8 979 84 0 S
29 - 08:00 18.6 1.8 979 76 4.7 ENE
29 - 09:00 18.4 1.8 980 80 2.6 ENE
29 - 10:00 17.3 2 980 88 1.1 SSE
Apalmet utiliza cookies propias y de terceros para mejorar la usabilidad y la experiencia web. Política de cookies.